Time;durP1;ratioP1;P1;durP2;ratioP2;P2;SDS_P1;SDS_P2;PMS_P1;PMS_P2;Temp;Humidity;BMP_temperature;BMP_pressure;BME280_temperature;BME280_humidity;BME280_pressure;Samples;Min_cycle;Max_cycle;Signal;HPM_P1;HPM_P2
2021/04/14 00:03:40;;;;;;;12.00;6.90;;;;;;;;;;10286940;28;20513;-71
2021/04/14 00:08:42;;;;;;;14.00;7.80;;;;;;;;;;10287403;28;20207;-71
2021/04/14 00:13:44;;;;;;;12.30;6.50;;;;;;;;;;10277667;28;20200;-70
2021/04/14 00:18:46;;;;;;;12.27;6.70;;;;;;;;;;10287711;28;20227;-71
2021/04/14 00:23:50;;;;;;;12.13;6.70;;;;;;;;;;10284913;28;20387;-71
2021/04/14 00:28:51;;;;;;;12.70;6.50;;;;;;;;;;10293432;28;20663;-70
2021/04/14 00:33:53;;;;;;;10.93;4.93;;;;;;;;;;10286367;28;20230;-71
2021/04/14 00:38:56;;;;;;;9.70;4.70;;;;;;;;;;10288505;28;20231;-72
2021/04/14 00:43:58;;;;;;;10.93;5.20;;;;;;;;;;10292131;28;20207;-71
2021/04/14 00:48:59;;;;;;;11.37;5.07;;;;;;;;;;10289390;28;20270;-71
2021/04/14 00:54:02;;;;;;;9.30;4.73;;;;;;;;;;10285636;28;20200;-71
2021/04/14 00:59:04;;;;;;;10.57;5.10;;;;;;;;;;10278853;28;20211;-70
2021/04/14 01:04:05;;;;;;;10.70;5.23;;;;;;;;;;10277305;28;20207;-72
2021/04/14 01:09:08;;;;;;;9.13;4.50;;;;;;;;;;10272087;28;20215;-71
2021/04/14 01:14:09;;;;;;;9.33;4.60;;;;;;;;;;10284531;28;20203;-71
2021/04/14 01:19:12;;;;;;;9.70;4.67;;;;;;;;;;10281837;28;20223;-71
2021/04/14 01:24:15;;;;;;;10.03;4.77;;;;;;;;;;10296561;28;20226;-72
2021/04/14 01:29:17;;;;;;;8.80;3.90;;;;;;;;;;10292118;28;20307;-72
2021/04/14 01:34:19;;;;;;;10.33;3.93;;;;;;;;;;10282147;28;20346;-69
2021/04/14 01:39:22;;;;;;;8.83;4.17;;;;;;;;;;10275999;28;20228;-69
2021/04/14 01:44:23;;;;;;;8.10;3.97;;;;;;;;;;10282213;28;20203;-71
2021/04/14 01:49:25;;;;;;;8.13;3.80;;;;;;;;;;10279494;28;20219;-71
2021/04/14 01:54:27;;;;;;;7.63;3.80;;;;;;;;;;10281253;28;20290;-72
2021/04/14 01:59:29;;;;;;;10.20;4.53;;;;;;;;;;10278904;28;20227;-72
2021/04/14 02:04:30;;;;;;;9.53;4.37;;;;;;;;;;10282813;28;20207;-70
2021/04/14 02:09:33;;;;;;;7.87;4.20;;;;;;;;;;10278252;28;20223;-71
2021/04/14 02:14:34;;;;;;;9.30;4.40;;;;;;;;;;10280037;28;20215;-70
2021/04/14 02:19:36;;;;;;;9.90;4.87;;;;;;;;;;10276663;28;20742;-71
2021/04/14 02:24:38;;;;;;;9.87;4.70;;;;;;;;;;10282489;28;20283;-71
2021/04/14 02:29:40;;;;;;;11.30;5.20;;;;;;;;;;10281450;28;20331;-71
2021/04/14 02:34:41;;;;;;;9.37;4.70;;;;;;;;;;10280736;28;20246;-71
2021/04/14 02:39:44;;;;;;;9.63;4.63;;;;;;;;;;10281674;28;20215;-74
2021/04/14 02:44:45;;;;;;;9.50;5.10;;;;;;;;;;10274557;28;20200;-71
2021/04/14 02:49:47;;;;;;;10.17;5.00;;;;;;;;;;10278647;28;20222;-71
2021/04/14 02:54:50;;;;;;;10.50;4.77;;;;;;;;;;10278926;28;20196;-72
2021/04/14 02:59:53;;;;;;;9.33;4.90;;;;;;;;;;10284743;28;20714;-71
2021/04/14 03:04:55;;;;;;;9.83;5.23;;;;;;;;;;10290185;28;20204;-71
2021/04/14 03:09:57;;;;;;;10.00;5.43;;;;;;;;;;10287772;28;20212;-71
2021/04/14 03:14:59;;;;;;;11.27;5.23;;;;;;;;;;10281922;28;20204;-71
2021/04/14 03:20:01;;;;;;;10.23;5.50;;;;;;;;;;10305068;28;20223;-72
2021/04/14 03:25:05;;;;;;;12.03;5.80;;;;;;;;;;10283215;28;20208;-71
2021/04/14 03:30:08;;;;;;;12.47;6.70;;;;;;;;;;10286358;28;20302;-72
2021/04/14 03:35:10;;;;;;;13.30;6.27;;;;;;;;;;10289278;28;20191;-72
2021/04/14 03:40:14;;;;;;;12.93;6.73;;;;;;;;;;10279675;28;20238;-72
2021/04/14 03:45:19;;;;;;;11.70;6.57;;;;;;;;;;10285112;28;20222;-70
2021/04/14 03:50:22;;;;;;;12.03;6.07;;;;;;;;;;10285845;28;20773;-70
2021/04/14 03:55:24;;;;;;;13.77;6.20;;;;;;;;;;10287341;28;20192;-71
2021/04/14 04:00:26;;;;;;;14.07;6.77;;;;;;;;;;10281264;28;20224;-69
2021/04/14 04:05:28;;;;;;;12.93;6.10;;;;;;;;;;10283626;28;20283;-72
2021/04/14 04:10:30;;;;;;;11.77;6.33;;;;;;;;;;10288669;28;20216;-72
2021/04/14 04:15:32;;;;;;;11.27;6.10;;;;;;;;;;10270605;28;20231;-71
2021/04/14 04:20:35;;;;;;;13.77;7.07;;;;;;;;;;10287064;28;20278;-71
2021/04/14 04:25:38;;;;;;;12.87;6.73;;;;;;;;;;10284067;28;20192;-72
2021/04/14 04:30:39;;;;;;;14.33;6.50;;;;;;;;;;10285089;28;20219;-72
2021/04/14 04:35:41;;;;;;;12.67;6.57;;;;;;;;;;10280842;28;20503;-72
2021/04/14 04:40:44;;;;;;;15.30;7.80;;;;;;;;;;10285902;28;20591;-71
2021/04/14 04:45:46;;;;;;;12.63;6.50;;;;;;;;;;10283973;28;20196;-71
2021/04/14 04:50:47;;;;;;;15.30;7.40;;;;;;;;;;10286738;28;20235;-71
2021/04/14 04:55:50;;;;;;;13.90;7.20;;;;;;;;;;10285297;28;20204;-71
2021/04/14 05:00:52;;;;;;;12.97;6.93;;;;;;;;;;10286744;28;20223;-70
2021/04/14 05:06:00;;;;;;;15.37;7.73;;;;;;;;;;10285594;28;20192;-71
2021/04/14 05:11:03;;;;;;;13.57;7.10;;;;;;;;;;10280302;28;20294;-70
2021/04/14 05:16:05;;;;;;;14.60;7.17;;;;;;;;;;10279195;28;20686;-71
2021/04/14 05:21:07;;;;;;;12.80;6.73;;;;;;;;;;10272137;28;20244;-73
2021/04/14 05:26:10;;;;;;;12.67;6.27;;;;;;;;;;10279664;28;20290;-72
2021/04/14 05:31:12;;;;;;;13.53;7.50;;;;;;;;;;10274859;28;20251;-71
2021/04/14 05:36:14;;;;;;;16.47;8.70;;;;;;;;;;10273827;28;20529;-70
2021/04/14 05:41:16;;;;;;;15.27;8.83;;;;;;;;;;10272042;28;20234;-71
2021/04/14 05:46:19;;;;;;;15.33;8.60;;;;;;;;;;10268009;28;20210;-71
2021/04/14 05:51:24;;;;;;;14.80;8.47;;;;;;;;;;10268980;28;20247;-72
2021/04/14 05:56:26;;;;;;;16.03;8.43;;;;;;;;;;10270577;28;20453;-72
2021/04/14 06:01:31;;;;;;;14.97;6.70;;;;;;;;;;10273754;28;20227;-72
2021/04/14 06:06:32;;;;;;;11.83;6.37;;;;;;;;;;10267159;28;20640;-69
2021/04/14 06:11:36;;;;;;;12.67;6.23;;;;;;;;;;10268721;28;20216;-70
2021/04/14 06:16:37;;;;;;;13.03;6.20;;;;;;;;;;10264340;28;20603;-70
2021/04/14 06:21:40;;;;;;;12.83;6.07;;;;;;;;;;10268676;28;20207;-70
2021/04/14 06:26:45;;;;;;;13.80;5.37;;;;;;;;;;10269264;28;20206;-70
2021/04/14 06:31:52;;;;;;;10.93;4.83;;;;;;;;;;10278648;28;20322;-71
2021/04/14 06:36:56;;;;;;;8.87;4.00;;;;;;;;;;10283006;28;20277;-72
2021/04/14 06:42:11;;;;;;;11.60;4.17;;;;;;;;;;10279115;28;20222;-71
2021/04/14 06:47:16;;;;;;;10.30;4.40;;;;;;;;;;10281459;28;20199;-70
2021/04/14 06:52:22;;;;;;;11.10;4.70;;;;;;;;;;10276247;28;20652;-71
2021/04/14 06:57:27;;;;;;;12.57;5.00;;;;;;;;;;10279481;28;20687;-70
2021/04/14 07:02:31;;;;;;;10.50;4.43;;;;;;;;;;10290277;28;20585;-70
2021/04/14 07:07:33;;;;;;;7.73;3.83;;;;;;;;;;10286729;28;20223;-70
2021/04/14 07:12:36;;;;;;;7.37;3.80;;;;;;;;;;10266541;28;20303;-68
2021/04/14 07:17:45;;;;;;;7.10;3.63;;;;;;;;;;10272911;28;20231;-69
2021/04/14 07:22:55;;;;;;;10.50;4.00;;;;;;;;;;10283592;28;20278;-70
2021/04/14 07:28:01;;;;;;;7.40;3.60;;;;;;;;;;10281846;28;20219;-68
2021/04/14 07:33:09;;;;;;;7.40;3.70;;;;;;;;;;10280237;28;20223;-70
2021/04/14 07:38:18;;;;;;;8.60;3.70;;;;;;;;;;10276502;28;20229;-68
2021/04/14 07:43:26;;;;;;;6.97;3.78;;;;;;;;;;10285393;28;20227;-70
2021/04/14 07:48:29;;;;;;;6.97;3.70;;;;;;;;;;10281908;28;20294;-71
2021/04/14 07:53:32;;;;;;;7.22;3.88;;;;;;;;;;10280225;28;20204;-69
2021/04/14 07:58:35;;;;;;;9.40;3.72;;;;;;;;;;10286233;28;20215;-70
2021/04/14 08:03:39;;;;;;;8.23;3.38;;;;;;;;;;10281606;28;20210;-70
2021/04/14 08:08:41;;;;;;;4.87;2.47;;;;;;;;;;10287636;28;20215;-69
2021/04/14 08:13:45;;;;;;;6.53;3.20;;;;;;;;;;10274780;28;20299;-70
2021/04/14 08:18:51;;;;;;;7.80;3.20;;;;;;;;;;10285575;28;20318;-70
2021/04/14 08:23:54;;;;;;;7.38;2.92;;;;;;;;;;10278234;28;20191;-70
2021/04/14 08:29:08;;;;;;;4.97;3.00;;;;;;;;;;10283307;28;20223;-70
2021/04/14 08:34:13;;;;;;;5.45;2.70;;;;;;;;;;10288117;28;20650;-70
2021/04/14 08:39:17;;;;;;;6.13;2.63;;;;;;;;;;10283803;28;20219;-68
2021/04/14 08:44:30;;;;;;;9.32;5.35;;;;;;;;;;10270361;28;20197;-68
2021/04/14 08:49:32;;;;;;;6.28;3.50;;;;;;;;;;10269807;28;20619;-70
2021/04/14 08:54:35;;;;;;;5.70;3.10;;;;;;;;;;10282210;28;20219;-70
2021/04/14 08:59:38;;;;;;;5.80;3.00;;;;;;;;;;10283994;28;20687;-70
2021/04/14 09:04:42;;;;;;;7.45;3.40;;;;;;;;;;10279230;28;20223;-71
2021/04/14 09:09:47;;;;;;;7.38;3.20;;;;;;;;;;10283348;28;20679;-69
2021/04/14 09:14:59;;;;;;;5.37;3.00;;;;;;;;;;10279255;28;20675;-71
2021/04/14 09:20:09;;;;;;;6.37;2.93;;;;;;;;;;10281033;28;20651;-71
2021/04/14 09:25:12;;;;;;;7.53;2.80;;;;;;;;;;10279744;28;20277;-70
2021/04/14 09:30:29;;;;;;;7.97;2.93;;;;;;;;;;10284162;28;20223;-70
2021/04/14 09:35:39;;;;;;;5.30;2.70;;;;;;;;;;10273071;28;20558;-67
2021/04/14 09:40:41;;;;;;;6.30;3.00;;;;;;;;;;10283995;28;20231;-70
2021/04/14 09:45:54;;;;;;;6.53;2.87;;;;;;;;;;10279973;28;20196;-70
2021/04/14 09:50:56;;;;;;;6.13;3.03;;;;;;;;;;10280186;28;20727;-71
2021/04/14 09:55:59;;;;;;;4.27;2.60;;;;;;;;;;10281873;28;20667;-72
2021/04/14 10:01:10;;;;;;;6.15;3.03;;;;;;;;;;10278570;28;20321;-70
2021/04/14 10:06:14;;;;;;;7.30;2.20;;;;;;;;;;10283639;28;20215;-70
2021/04/14 10:11:23;;;;;;;7.43;2.33;;;;;;;;;;10275201;28;20330;-70
2021/04/14 10:16:26;;;;;;;5.88;3.00;;;;;;;;;;10276903;28;20246;-71
2021/04/14 10:21:29;;;;;;;6.37;2.40;;;;;;;;;;10276755;28;20730;-70
2021/04/14 10:26:31;;;;;;;7.38;2.40;;;;;;;;;;10281244;28;20192;-70
2021/04/14 10:31:35;;;;;;;4.13;2.10;;;;;;;;;;10277239;28;20216;-70
2021/04/14 10:36:41;;;;;;;3.77;1.80;;;;;;;;;;10280567;28;20192;-70
2021/04/14 10:41:43;;;;;;;3.53;1.70;;;;;;;;;;10275910;28;20254;-68
2021/04/14 10:46:46;;;;;;;5.00;1.80;;;;;;;;;;10260949;28;20658;-69
2021/04/14 10:51:51;;;;;;;7.33;2.10;;;;;;;;;;10261623;28;20314;-70
2021/04/14 10:57:01;;;;;;;3.83;1.93;;;;;;;;;;10269240;28;20280;-68
2021/04/14 11:02:08;;;;;;;4.07;1.67;;;;;;;;;;10270668;28;20212;-70
2021/04/14 11:07:13;;;;;;;4.83;1.83;;;;;;;;;;10280317;28;20196;-70
2021/04/14 11:12:15;;;;;;;4.63;1.50;;;;;;;;;;10281044;28;20250;-70
2021/04/14 11:17:19;;;;;;;4.33;1.60;;;;;;;;;;10283704;28;20203;-70
2021/04/14 11:22:21;;;;;;;3.03;1.43;;;;;;;;;;10284536;28;20196;-71
2021/04/14 11:27:24;;;;;;;2.57;1.40;;;;;;;;;;10276049;28;20204;-69
2021/04/14 11:32:27;;;;;;;4.90;1.97;;;;;;;;;;10277262;28;20314;-71
2021/04/14 11:37:40;;;;;;;7.37;2.20;;;;;;;;;;10282257;28;20215;-70
2021/04/14 11:42:42;;;;;;;3.70;2.17;;;;;;;;;;10276817;28;20192;-71
2021/04/14 11:47:45;;;;;;;4.97;2.00;;;;;;;;;;10282146;28;20291;-71
2021/04/14 11:52:48;;;;;;;6.00;2.40;;;;;;;;;;10281747;28;20219;-70
2021/04/14 11:57:52;;;;;;;4.75;2.28;;;;;;;;;;10279607;28;20492;-70
2021/04/14 12:02:56;;;;;;;4.60;2.00;;;;;;;;;;10282458;28;20306;-70
2021/04/14 12:07:58;;;;;;;5.47;2.10;;;;;;;;;;10276486;28;20576;-70
2021/04/14 12:12:59;;;;;;;3.63;2.03;;;;;;;;;;10280706;28;20278;-72
2021/04/14 12:18:01;;;;;;;5.67;2.40;;;;;;;;;;10277863;28;20223;-70
2021/04/14 12:23:03;;;;;;;4.50;2.20;;;;;;;;;;10275927;28;20787;-71
2021/04/14 12:28:05;;;;;;;4.88;2.20;;;;;;;;;;10276931;28;20853;-70
2021/04/14 12:33:07;;;;;;;5.15;2.28;;;;;;;;;;10277230;28;20827;-70
2021/04/14 12:38:09;;;;;;;5.93;2.07;;;;;;;;;;10282844;28;20220;-69
2021/04/14 12:43:11;;;;;;;3.17;2.00;;;;;;;;;;10280953;28;20659;-69
2021/04/14 12:48:15;;;;;;;3.87;2.10;;;;;;;;;;10280804;28;20258;-69
2021/04/14 12:53:25;;;;;;;5.63;2.40;;;;;;;;;;10275314;28;20255;-70
2021/04/14 12:58:28;;;;;;;4.27;2.70;;;;;;;;;;10267458;28;20223;-69
2021/04/14 13:03:35;;;;;;;4.60;2.50;;;;;;;;;;10279388;28;20601;-69
2021/04/14 13:08:38;;;;;;;5.13;2.60;;;;;;;;;;10277964;28;20208;-69
2021/04/14 13:13:40;;;;;;;6.20;2.50;;;;;;;;;;10286409;28;20195;-70
2021/04/14 13:18:43;;;;;;;5.47;2.20;;;;;;;;;;10281554;28;20215;-71
2021/04/14 13:23:46;;;;;;;5.10;2.40;;;;;;;;;;10281028;28;20223;-71
2021/04/14 13:28:50;;;;;;;4.47;2.50;;;;;;;;;;10278086;28;20706;-70
2021/04/14 13:33:55;;;;;;;6.67;2.50;;;;;;;;;;10274809;28;20200;-70
2021/04/14 13:38:58;;;;;;;4.43;2.37;;;;;;;;;;10274258;28;20270;-71
2021/04/14 13:44:02;;;;;;;4.53;2.50;;;;;;;;;;10275858;28;20648;-70
2021/04/14 13:49:07;;;;;;;5.20;2.10;;;;;;;;;;10280273;28;20215;-69
2021/04/14 13:54:09;;;;;;;4.60;2.33;;;;;;;;;;10274791;28;20588;-71
2021/04/14 13:59:14;;;;;;;4.50;2.37;;;;;;;;;;10280905;28;20216;-70
2021/04/14 14:04:17;;;;;;;6.60;2.20;;;;;;;;;;10270518;28;20544;-70
2021/04/14 14:09:21;;;;;;;5.43;2.43;;;;;;;;;;10276524;28;20266;-69
2021/04/14 14:14:22;;;;;;;4.53;2.20;;;;;;;;;;10276561;28;20700;-70
2021/04/14 14:19:27;;;;;;;5.70;2.63;;;;;;;;;;10277664;28;20330;-69
2021/04/14 14:24:29;;;;;;;4.03;2.50;;;;;;;;;;10271527;28;20303;-70
2021/04/14 14:29:32;;;;;;;3.87;2.27;;;;;;;;;;10269847;28;20242;-69
2021/04/14 14:34:36;;;;;;;4.97;2.50;;;;;;;;;;10274195;28;20223;-69
2021/04/14 14:39:39;;;;;;;6.30;2.70;;;;;;;;;;10274709;28;20252;-70
2021/04/14 14:44:44;;;;;;;3.13;1.83;;;;;;;;;;10274509;28;20294;-70
2021/04/14 14:49:48;;;;;;;4.63;2.10;;;;;;;;;;10290746;28;20282;-70
2021/04/14 14:54:52;;;;;;;3.60;1.90;;;;;;;;;;10283083;28;20649;-69
2021/04/14 14:59:57;;;;;;;3.80;2.07;;;;;;;;;;10283153;28;20359;-70
2021/04/14 15:05:00;;;;;;;4.30;2.10;;;;;;;;;;10283550;28;20251;-69
2021/04/14 15:10:02;;;;;;;5.00;2.10;;;;;;;;;;10288503;28;20656;-71
2021/04/14 15:15:05;;;;;;;4.20;2.20;;;;;;;;;;10281335;28;20644;-70
2021/04/14 15:20:08;;;;;;;4.03;2.40;;;;;;;;;;10295299;28;20211;-71
2021/04/14 15:25:10;;;;;;;7.03;3.00;;;;;;;;;;10278210;28;20231;-70
2021/04/14 15:30:13;;;;;;;4.70;2.50;;;;;;;;;;10281800;28;20223;-70
2021/04/14 15:35:18;;;;;;;5.93;2.27;;;;;;;;;;10283552;28;20255;-71
2021/04/14 15:40:20;;;;;;;4.93;2.43;;;;;;;;;;10276605;28;20217;-70
2021/04/14 15:45:22;;;;;;;5.13;1.97;;;;;;;;;;10284299;28;20200;-69
2021/04/14 15:50:27;;;;;;;4.63;2.10;;;;;;;;;;10285367;28;20216;-70
2021/04/14 15:55:32;;;;;;;5.90;2.30;;;;;;;;;;10280778;28;20206;-71
2021/04/14 16:00:38;;;;;;;4.23;1.93;;;;;;;;;;10278505;28;20218;-70
2021/04/14 16:05:40;;;;;;;4.33;2.33;;;;;;;;;;10282279;28;20203;-71
2021/04/14 16:10:43;;;;;;;5.37;2.57;;;;;;;;;;10295593;28;20228;-71
2021/04/14 16:15:45;;;;;;;3.67;2.20;;;;;;;;;;10271235;28;20238;-70
2021/04/14 16:20:48;;;;;;;4.57;2.30;;;;;;;;;;10280029;28;20710;-70
2021/04/14 16:25:49;;;;;;;4.63;2.20;;;;;;;;;;10276137;28;20285;-69
2021/04/14 16:30:51;;;;;;;5.90;2.10;;;;;;;;;;10268243;28;20219;-70
2021/04/14 16:35:54;;;;;;;5.27;2.57;;;;;;;;;;10277228;28;20644;-70
2021/04/14 16:40:56;;;;;;;5.77;2.30;;;;;;;;;;10276951;28;20287;-68
2021/04/14 16:45:57;;;;;;;5.67;2.67;;;;;;;;;;10277112;28;20278;-71
2021/04/14 16:51:00;;;;;;;5.80;2.50;;;;;;;;;;10282786;28;20211;-70
2021/04/14 16:56:02;;;;;;;6.87;3.13;;;;;;;;;;10269057;28;20192;-70
2021/04/14 17:01:04;;;;;;;8.40;3.50;;;;;;;;;;10274493;28;20243;-70
2021/04/14 17:06:06;;;;;;;6.23;2.30;;;;;;;;;;10277377;28;20686;-70
2021/04/14 17:11:08;;;;;;;4.17;2.27;;;;;;;;;;10279199;28;20692;-71
2021/04/14 17:16:12;;;;;;;8.83;3.60;;;;;;;;;;10277604;28;20215;-70
2021/04/14 17:21:16;;;;;;;5.50;2.73;;;;;;;;;;10285108;28;20220;-70
2021/04/14 17:26:17;;;;;;;7.50;2.60;;;;;;;;;;10280944;28;20275;-69
2021/04/14 17:31:19;;;;;;;6.03;2.73;;;;;;;;;;10271363;28;20302;-69
2021/04/14 17:36:22;;;;;;;6.07;2.37;;;;;;;;;;10275099;28;20555;-68
2021/04/14 17:41:24;;;;;;;7.47;3.80;;;;;;;;;;10292781;28;20215;-70
2021/04/14 17:46:26;;;;;;;7.37;2.93;;;;;;;;;;10311596;28;20234;-71
2021/04/14 17:51:29;;;;;;;4.30;2.40;;;;;;;;;;10304021;28;20223;-72
2021/04/14 17:56:31;;;;;;;6.90;2.53;;;;;;;;;;10296941;28;20202;-71
2021/04/14 18:01:33;;;;;;;6.27;2.40;;;;;;;;;;10274654;28;20324;-70
2021/04/14 18:06:35;;;;;;;3.80;2.00;;;;;;;;;;10276478;28;20668;-68
2021/04/14 18:11:37;;;;;;;6.77;2.60;;;;;;;;;;10277316;28;20200;-70
2021/04/14 18:16:38;;;;;;;4.50;2.20;;;;;;;;;;10271435;28;20240;-69
2021/04/14 18:21:41;;;;;;;6.00;2.17;;;;;;;;;;10277270;28;20257;-69
2021/04/14 18:26:43;;;;;;;6.47;2.43;;;;;;;;;;10268460;28;20520;-70
2021/04/14 18:31:44;;;;;;;9.23;4.00;;;;;;;;;;10284848;28;20237;-71
2021/04/14 18:36:49;;;;;;;8.30;3.80;;;;;;;;;;10283179;28;20204;-70
2021/04/14 18:41:51;;;;;;;7.43;3.10;;;;;;;;;;10281533;28;20600;-70
2021/04/14 18:46:53;;;;;;;2.87;1.70;;;;;;;;;;10279740;28;20296;-70
2021/04/14 18:51:56;;;;;;;8.23;4.00;;;;;;;;;;10281681;28;20281;-69
2021/04/14 18:56:57;;;;;;;3.00;1.37;;;;;;;;;;10278637;28;20197;-71
2021/04/14 19:01:59;;;;;;;7.63;4.07;;;;;;;;;;10289545;28;20215;-71
2021/04/14 19:07:01;;;;;;;8.47;3.53;;;;;;;;;;10284808;28;20680;-70
2021/04/14 19:12:03;;;;;;;5.93;2.80;;;;;;;;;;10285575;28;20247;-68
2021/04/14 19:17:05;;;;;;;6.87;3.00;;;;;;;;;;10275823;28;20204;-69
2021/04/14 19:22:08;;;;;;;8.03;4.27;;;;;;;;;;10283765;28;20200;-69
2021/04/14 19:27:09;;;;;;;9.33;4.50;;;;;;;;;;10277295;28;20262;-69
2021/04/14 19:32:12;;;;;;;6.47;3.23;;;;;;;;;;10287058;28;20292;-68
2021/04/14 19:37:16;;;;;;;5.67;2.73;;;;;;;;;;10280354;28;20207;-70
2021/04/14 19:42:17;;;;;;;9.77;4.60;;;;;;;;;;10277121;28;20264;-67
2021/04/14 19:47:19;;;;;;;3.13;1.63;;;;;;;;;;10274876;28;20198;-68
2021/04/14 19:52:22;;;;;;;10.63;5.57;;;;;;;;;;10289240;28;20688;-68
2021/04/14 19:57:24;;;;;;;9.30;5.55;;;;;;;;;;10283338;28;20479;-69
2021/04/14 20:02:26;;;;;;;7.70;4.10;;;;;;;;;;10284120;28;20207;-70
2021/04/14 20:07:29;;;;;;;6.77;3.23;;;;;;;;;;10275912;28;20192;-67
2021/04/14 20:12:30;;;;;;;3.53;1.33;;;;;;;;;;10279103;28;20204;-67
2021/04/14 20:17:32;;;;;;;9.50;4.20;;;;;;;;;;10272939;28;20234;-70
2021/04/14 20:22:35;;;;;;;9.00;4.77;;;;;;;;;;10275987;28;20658;-67
2021/04/14 20:27:36;;;;;;;8.37;4.00;;;;;;;;;;10296113;28;20623;-68
2021/04/14 20:32:38;;;;;;;9.20;4.67;;;;;;;;;;10294698;28;20346;-67
2021/04/14 20:37:41;;;;;;;8.43;4.70;;;;;;;;;;10280430;28;20486;-67
2021/04/14 20:42:43;;;;;;;10.03;4.93;;;;;;;;;;10271856;28;20684;-68
2021/04/14 20:47:46;;;;;;;9.30;4.83;;;;;;;;;;10272674;28;20700;-69
2021/04/14 20:52:49;;;;;;;8.00;4.23;;;;;;;;;;10276811;28;20219;-68
2021/04/14 20:57:51;;;;;;;8.67;5.13;;;;;;;;;;10274443;28;20223;-68
2021/04/14 21:02:52;;;;;;;9.57;4.93;;;;;;;;;;10278624;28;20553;-66
2021/04/14 21:07:55;;;;;;;8.87;5.13;;;;;;;;;;10282696;28;20612;-69
2021/04/14 21:12:56;;;;;;;9.10;4.60;;;;;;;;;;10278375;28;20189;-66
2021/04/14 21:17:58;;;;;;;8.30;4.43;;;;;;;;;;10270383;28;20220;-66
2021/04/14 21:23:00;;;;;;;8.53;5.13;;;;;;;;;;10277079;28;20576;-67
2021/04/14 21:28:03;;;;;;;9.83;5.40;;;;;;;;;;10271390;28;20230;-67
2021/04/14 21:33:05;;;;;;;9.50;5.40;;;;;;;;;;10269689;28;20576;-68
2021/04/14 21:38:07;;;;;;;9.70;5.63;;;;;;;;;;10274456;28;20245;-68
2021/04/14 21:43:09;;;;;;;8.97;4.80;;;;;;;;;;10269796;28;20310;-68
2021/04/14 21:48:13;;;;;;;46.73;26.20;;;;;;;;;;10281903;28;20687;-70
2021/04/14 21:53:15;;;;;;;9.13;5.23;;;;;;;;;;10279430;28;20259;-67
2021/04/14 21:58:16;;;;;;;9.57;5.30;;;;;;;;;;10281765;28;20395;-67
2021/04/14 22:03:19;;;;;;;11.03;5.70;;;;;;;;;;10282880;28;20637;-68
2021/04/14 22:08:22;;;;;;;8.83;4.80;;;;;;;;;;10283077;28;20619;-66
2021/04/14 22:13:25;;;;;;;10.40;5.60;;;;;;;;;;10277172;28;20196;-68
2021/04/14 22:18:27;;;;;;;9.93;5.20;;;;;;;;;;10280728;28;20262;-68
2021/04/14 22:23:32;;;;;;;10.43;5.93;;;;;;;;;;10281008;28;20512;-67
2021/04/14 22:28:36;;;;;;;11.47;6.40;;;;;;;;;;10278999;28;20231;-67
2021/04/14 22:33:38;;;;;;;11.10;6.20;;;;;;;;;;10283420;28;20207;-67
2021/04/14 22:38:41;;;;;;;10.93;6.20;;;;;;;;;;10280351;28;20303;-67
2021/04/14 22:43:43;;;;;;;12.63;6.90;;;;;;;;;;10282076;28;20277;-67
2021/04/14 22:48:45;;;;;;;14.40;7.43;;;;;;;;;;10279730;28;20247;-68
2021/04/14 22:53:47;;;;;;;12.07;7.10;;;;;;;;;;10276443;28;20216;-68
2021/04/14 22:58:49;;;;;;;12.47;7.03;;;;;;;;;;10279466;28;20232;-66
2021/04/14 23:03:50;;;;;;;13.77;7.60;;;;;;;;;;10281155;28;20306;-67
2021/04/14 23:08:52;;;;;;;11.70;7.20;;;;;;;;;;10281804;28;20580;-67
2021/04/14 23:13:54;;;;;;;12.43;7.57;;;;;;;;;;10281148;28;20188;-67
2021/04/14 23:18:56;;;;;;;12.20;7.17;;;;;;;;;;10290251;28;20707;-67
2021/04/14 23:23:58;;;;;;;12.67;7.40;;;;;;;;;;10288240;28;20649;-68
2021/04/14 23:29:00;;;;;;;14.97;7.83;;;;;;;;;;10286897;28;20595;-67
2021/04/14 23:34:02;;;;;;;13.50;8.10;;;;;;;;;;10286672;28;20787;-67
2021/04/14 23:39:05;;;;;;;13.87;7.97;;;;;;;;;;10288093;28;20683;-67
2021/04/14 23:44:06;;;;;;;14.73;8.33;;;;;;;;;;10280387;28;20706;-67
2021/04/14 23:49:08;;;;;;;13.27;8.37;;;;;;;;;;10283691;28;20212;-67
2021/04/14 23:54:10;;;;;;;14.00;8.23;;;;;;;;;;10288237;28;20268;-67
2021/04/14 23:59:12;;;;;;;15.13;9.13;;;;;;;;;;10284205;28;20580;-69
